createdAt,value
2017-09-27T00:00:49.619Z,0.00
2017-09-27T00:01:49.616Z,0.00
2017-09-27T00:02:49.613Z,0.00
2017-09-27T00:03:49.610Z,0.00
2017-09-27T00:04:49.608Z,0.00
2017-09-27T00:05:49.609Z,0.00
2017-09-27T00:06:49.606Z,0.00
2017-09-27T00:07:49.604Z,0.00
2017-09-27T00:08:49.602Z,0.00
2017-09-27T00:09:49.595Z,0.00
2017-09-27T00:10:49.592Z,0.00
2017-09-27T00:11:49.590Z,0.00
2017-09-27T00:12:49.586Z,0.00
2017-09-27T00:13:49.588Z,0.00
2017-09-27T00:14:49.586Z,0.00
2017-09-27T00:15:49.583Z,0.00
2017-09-27T00:16:49.581Z,0.00
2017-09-27T00:17:49.577Z,0.00
2017-09-27T00:18:49.573Z,0.00
2017-09-27T00:19:49.571Z,0.00
2017-09-27T00:20:49.569Z,0.00
2017-09-27T00:21:49.562Z,0.00
2017-09-27T00:22:49.559Z,0.00
2017-09-27T00:23:49.557Z,0.00
2017-09-27T00:24:49.553Z,0.00
2017-09-27T00:25:49.552Z,0.00
2017-09-27T00:26:49.549Z,0.00
2017-09-27T00:27:49.546Z,0.00
2017-09-27T00:28:49.542Z,0.00
2017-09-27T00:29:49.542Z,0.00
2017-09-27T00:30:49.545Z,0.00
2017-09-27T00:31:49.538Z,0.00
2017-09-27T00:32:49.534Z,0.00
2017-09-27T00:33:49.531Z,0.00
2017-09-27T00:34:49.529Z,0.00
2017-09-27T00:35:49.525Z,0.00
2017-09-27T00:36:49.522Z,0.00
2017-09-27T00:37:49.515Z,0.00
2017-09-27T00:38:49.513Z,0.00
2017-09-27T00:39:49.509Z,0.00
2017-09-27T00:40:49.506Z,0.00
2017-09-27T00:41:49.502Z,0.00
2017-09-27T00:42:49.500Z,0.00
2017-09-27T00:43:49.501Z,0.00
2017-09-27T00:44:49.523Z,0.00
2017-09-27T00:45:49.495Z,0.00
2017-09-27T00:46:49.492Z,0.00
2017-09-27T00:47:49.488Z,0.00
2017-09-27T00:48:49.486Z,0.00
2017-09-27T00:49:49.484Z,0.00
2017-09-27T00:50:49.478Z,0.00
2017-09-27T00:51:49.476Z,0.00
2017-09-27T00:52:49.471Z,0.00
2017-09-27T00:53:49.466Z,0.00
2017-09-27T00:54:49.462Z,0.00
2017-09-27T00:55:49.458Z,0.00
2017-09-27T00:56:49.455Z,0.00
2017-09-27T00:57:49.451Z,0.00
2017-09-27T00:58:49.448Z,0.00
2017-09-27T00:59:49.445Z,0.00
2017-09-27T01:00:49.442Z,0.00
2017-09-27T01:01:49.442Z,0.00
2017-09-27T01:02:49.439Z,0.00
2017-09-27T01:03:49.436Z,0.00
2017-09-27T01:04:49.431Z,0.00
2017-09-27T01:05:49.427Z,0.00
2017-09-27T01:06:49.426Z,0.00
2017-09-27T01:07:49.422Z,0.00
2017-09-27T01:08:49.418Z,0.00
2017-09-27T01:09:49.411Z,0.00
2017-09-27T01:10:49.408Z,0.00
2017-09-27T01:11:49.406Z,0.00
2017-09-27T01:12:49.400Z,0.00
2017-09-27T01:13:49.401Z,0.00
2017-09-27T01:14:49.398Z,0.00
2017-09-27T01:15:49.394Z,0.00
2017-09-27T01:16:49.389Z,0.00
2017-09-27T01:17:49.384Z,0.00
2017-09-27T01:18:49.381Z,0.00
2017-09-27T01:19:49.376Z,0.00
2017-09-27T01:20:49.376Z,0.00
2017-09-27T01:21:49.368Z,0.00
2017-09-27T01:22:49.365Z,0.00
2017-09-27T01:23:49.361Z,0.00
2017-09-27T01:24:49.358Z,0.00
2017-09-27T01:25:49.358Z,0.00
2017-09-27T01:26:49.356Z,0.00
2017-09-27T01:27:49.352Z,0.00
2017-09-27T01:28:49.348Z,0.00
2017-09-27T01:29:49.346Z,0.00
2017-09-27T01:30:49.340Z,0.00
2017-09-27T01:31:49.339Z,0.00
2017-09-27T01:32:49.335Z,0.00
2017-09-27T01:33:49.326Z,0.00
2017-09-27T01:34:49.324Z,0.00
2017-09-27T01:35:49.319Z,0.00
2017-09-27T01:36:49.316Z,0.00
2017-09-27T01:37:49.312Z,0.00
2017-09-27T01:38:49.309Z,0.00
2017-09-27T01:39:49.309Z,0.00
2017-09-27T01:40:49.300Z,0.00
2017-09-27T01:41:49.301Z,0.00
2017-09-27T01:42:49.299Z,0.00
2017-09-27T01:43:49.295Z,0.00
2017-09-27T01:44:49.294Z,0.00
2017-09-27T01:45:49.288Z,0.00
2017-09-27T01:46:49.283Z,0.00
2017-09-27T01:47:49.282Z,0.00
2017-09-27T01:48:49.280Z,0.00
2017-09-27T01:49:49.268Z,0.00
2017-09-27T01:50:49.265Z,0.00
2017-09-27T01:51:49.262Z,0.00
2017-09-27T01:52:49.257Z,0.00
2017-09-27T01:53:49.256Z,0.00
2017-09-27T01:54:49.251Z,0.00
2017-09-27T01:55:49.247Z,0.00
2017-09-27T01:56:49.243Z,0.00
2017-09-27T01:57:49.243Z,0.00
2017-09-27T01:58:49.245Z,0.00
2017-09-27T01:59:49.237Z,0.00
2017-09-27T02:00:49.231Z,0.00
2017-09-27T02:01:49.228Z,0.00
2017-09-27T02:02:49.225Z,0.00
2017-09-27T02:03:49.221Z,0.00
2017-09-27T02:04:49.217Z,0.00
2017-09-27T02:05:49.208Z,0.00
2017-09-27T02:06:49.204Z,0.00
2017-09-27T02:07:49.202Z,0.00
2017-09-27T02:08:49.196Z,0.00
2017-09-27T02:09:49.193Z,0.00
2017-09-27T02:10:49.191Z,0.00
2017-09-27T02:11:49.186Z,0.00
2017-09-27T02:12:49.183Z,0.00
2017-09-27T02:13:49.183Z,0.00
2017-09-27T02:14:49.178Z,0.00
2017-09-27T02:15:49.174Z,0.00
2017-09-27T02:16:49.168Z,0.00
2017-09-27T02:17:49.164Z,0.00
2017-09-27T02:18:49.158Z,0.00
2017-09-27T02:19:49.155Z,0.00
2017-09-27T02:20:49.150Z,0.00
2017-09-27T02:21:49.151Z,0.00
2017-09-27T02:22:49.147Z,0.00
2017-09-27T02:23:49.142Z,0.00
2017-09-27T02:24:49.138Z,0.00
2017-09-27T02:25:49.135Z,0.00
2017-09-27T02:26:49.135Z,0.00
2017-09-27T02:27:49.130Z,0.00
2017-09-27T02:28:49.121Z,0.00
2017-09-27T02:29:49.115Z,0.00
2017-09-27T02:30:49.111Z,0.00
2017-09-27T02:31:49.106Z,0.00
2017-09-27T02:32:49.102Z,0.00
2017-09-27T02:33:49.098Z,0.00
2017-09-27T02:34:49.100Z,0.00
2017-09-27T02:35:49.090Z,0.00
2017-09-27T02:36:49.086Z,0.00
2017-09-27T02:37:49.086Z,0.00
2017-09-27T02:38:49.082Z,0.00
2017-09-27T02:39:49.079Z,0.00
2017-09-27T02:40:49.074Z,0.00
2017-09-27T02:41:49.070Z,0.00
2017-09-27T02:42:49.066Z,0.00
2017-09-27T02:43:49.063Z,0.00
2017-09-27T02:44:49.059Z,0.00
2017-09-27T02:45:49.049Z,0.00
2017-09-27T02:46:49.046Z,0.00
2017-09-27T02:47:49.042Z,0.00
2017-09-27T02:48:49.036Z,0.00
2017-09-27T02:49:49.032Z,0.00
2017-09-27T02:50:49.028Z,0.00
2017-09-27T02:51:49.025Z,0.00
2017-09-27T02:52:49.020Z,0.00
2017-09-27T02:53:49.020Z,0.00
2017-09-27T02:54:49.016Z,0.00
2017-09-27T02:55:49.017Z,0.00
2017-09-27T02:56:49.008Z,0.00
2017-09-27T02:57:49.005Z,0.00
2017-09-27T02:58:49.000Z,0.00
2017-09-27T02:59:48.996Z,0.00
2017-09-27T03:00:48.990Z,0.00
2017-09-27T03:01:48.981Z,0.00
2017-09-27T03:02:48.981Z,0.00
2017-09-27T03:03:48.975Z,0.00
2017-09-27T03:04:48.969Z,0.00
2017-09-27T03:05:48.967Z,0.00
2017-09-27T03:06:48.962Z,0.00
2017-09-27T03:07:48.958Z,0.00
2017-09-27T03:08:48.952Z,0.00
2017-09-27T03:09:48.952Z,0.00
2017-09-27T03:10:48.949Z,0.00
2017-09-27T03:11:48.944Z,0.00
2017-09-27T03:12:48.941Z,0.00
2017-09-27T03:13:48.936Z,0.00
2017-09-27T03:14:48.933Z,0.00
2017-09-27T03:15:48.929Z,0.00
2017-09-27T03:16:48.924Z,0.00
2017-09-27T03:17:48.914Z,0.00
2017-09-27T03:18:48.912Z,0.00
2017-09-27T03:19:48.907Z,0.00
2017-09-27T03:20:48.903Z,0.00
2017-09-27T03:21:48.903Z,0.00
2017-09-27T03:22:48.901Z,0.00
2017-09-27T03:23:48.896Z,0.00
2017-09-27T03:24:48.891Z,0.00
2017-09-27T03:25:48.881Z,0.00
2017-09-27T03:26:48.879Z,0.00
2017-09-27T03:27:48.876Z,0.00
2017-09-27T03:28:48.870Z,0.00
2017-09-27T03:29:48.866Z,0.00
2017-09-27T03:30:48.864Z,0.00
2017-09-27T03:31:48.859Z,0.00
2017-09-27T03:32:48.853Z,0.00
2017-09-27T03:33:48.854Z,0.00
2017-09-27T03:34:48.850Z,0.00
2017-09-27T03:35:48.848Z,0.00
2017-09-27T03:36:48.841Z,0.00
2017-09-27T03:37:48.838Z,0.00
2017-09-27T03:38:48.833Z,0.00
2017-09-27T03:39:48.830Z,0.00
2017-09-27T03:40:48.824Z,0.00
2017-09-27T03:41:48.821Z,0.00
2017-09-27T03:42:48.813Z,0.00
2017-09-27T03:43:48.808Z,0.00
2017-09-27T03:44:48.803Z,0.00
2017-09-27T03:45:48.799Z,0.00
2017-09-27T03:46:48.796Z,0.00
2017-09-27T03:47:48.791Z,0.00
2017-09-27T03:48:48.787Z,0.00
2017-09-27T03:49:48.786Z,0.00
2017-09-27T03:50:48.782Z,0.00
2017-09-27T03:51:48.780Z,0.00
2017-09-27T03:52:48.774Z,0.00
2017-09-27T03:53:48.770Z,0.00
2017-09-27T03:54:48.768Z,0.00
2017-09-27T03:55:48.761Z,0.00
2017-09-27T03:56:48.758Z,0.00
2017-09-27T03:57:48.750Z,0.00
2017-09-27T03:58:48.752Z,0.00
2017-09-27T03:59:48.741Z,0.00
2017-09-27T04:00:48.736Z,0.00
2017-09-27T04:01:48.731Z,0.00
2017-09-27T04:02:48.728Z,0.00
2017-09-27T04:03:48.724Z,0.00
2017-09-27T04:04:48.722Z,0.00
2017-09-27T04:05:48.720Z,0.00
2017-09-27T04:06:48.716Z,0.00
2017-09-27T04:07:48.711Z,0.00
2017-09-27T04:08:48.704Z,0.00
2017-09-27T04:09:48.701Z,0.00
2017-09-27T04:10:48.698Z,0.00
2017-09-27T04:11:48.694Z,0.00
2017-09-27T04:12:48.689Z,0.00
2017-09-27T04:13:48.680Z,0.00
2017-09-27T04:14:48.677Z,0.00
2017-09-27T04:15:48.672Z,0.00
2017-09-27T04:16:48.667Z,0.00
2017-09-27T04:17:48.663Z,0.00
2017-09-27T04:18:48.662Z,0.00
2017-09-27T04:19:48.655Z,0.00
2017-09-27T04:20:48.650Z,0.00
2017-09-27T04:21:48.649Z,0.00
2017-09-27T04:22:48.649Z,0.00
2017-09-27T04:23:48.641Z,0.00
2017-09-27T04:24:48.637Z,0.00
2017-09-27T04:25:48.632Z,0.00
2017-09-27T04:26:48.627Z,0.00
2017-09-27T04:27:48.624Z,0.00
2017-09-27T04:28:48.617Z,0.00
2017-09-27T04:29:48.610Z,0.00
2017-09-27T04:30:48.606Z,0.00
2017-09-27T04:31:48.602Z,0.00
2017-09-27T04:32:48.597Z,0.00
2017-09-27T04:33:48.591Z,0.00
2017-09-27T04:34:48.586Z,0.00
2017-09-27T04:35:48.583Z,0.00
2017-09-27T04:36:48.579Z,0.00
2017-09-27T04:37:48.577Z,0.00
2017-09-27T04:38:48.572Z,0.00
2017-09-27T04:39:48.569Z,0.00
2017-09-27T04:40:48.567Z,0.00
2017-09-27T04:41:48.560Z,0.00
2017-09-27T04:42:48.555Z,0.00
2017-09-27T04:43:48.551Z,0.00
2017-09-27T04:44:48.546Z,0.00
2017-09-27T04:45:48.538Z,0.00
2017-09-27T04:46:48.534Z,0.00
2017-09-27T04:47:48.528Z,0.00
2017-09-27T04:48:48.523Z,0.00
2017-09-27T04:49:48.519Z,0.00
2017-09-27T04:50:48.520Z,0.00
2017-09-27T04:51:48.510Z,0.00
2017-09-27T04:52:48.506Z,0.00
2017-09-27T04:53:48.506Z,0.00
2017-09-27T04:54:48.500Z,0.00
2017-09-27T04:55:48.497Z,4.00
2017-09-27T04:56:48.492Z,4.00
2017-09-27T04:57:48.487Z,0.00
2017-09-27T04:58:48.483Z,4.00
2017-09-27T04:59:48.479Z,4.00
2017-09-27T05:00:48.475Z,4.00
2017-09-27T05:01:48.466Z,4.00
2017-09-27T05:02:48.461Z,8.00
2017-09-27T05:03:48.458Z,8.00
2017-09-27T05:04:48.452Z,12.00
2017-09-27T05:05:48.447Z,12.00
2017-09-27T05:06:48.444Z,12.00
2017-09-27T05:07:48.438Z,20.00
2017-09-27T05:08:48.433Z,20.00
2017-09-27T05:09:48.434Z,24.00
2017-09-27T05:10:48.430Z,24.00
2017-09-27T05:11:48.425Z,32.00
2017-09-27T05:12:48.420Z,36.00
2017-09-27T05:13:48.414Z,44.00
2017-09-27T05:14:48.410Z,52.00
2017-09-27T05:15:48.405Z,60.00
2017-09-27T05:16:48.400Z,68.00
2017-09-27T05:17:48.392Z,76.00
2017-09-27T05:18:48.389Z,84.00
2017-09-27T05:19:48.384Z,96.00
2017-09-27T05:20:48.379Z,112.00
2017-09-27T05:21:48.375Z,124.00
2017-09-27T05:22:48.371Z,140.00
2017-09-27T05:23:48.366Z,160.00
2017-09-27T05:24:48.361Z,180.00
2017-09-27T05:25:48.361Z,200.00
2017-09-27T05:26:48.357Z,224.00
2017-09-27T05:27:48.351Z,248.00
2017-09-27T05:28:48.346Z,268.00
2017-09-27T05:29:48.340Z,292.00
2017-09-27T05:30:48.334Z,316.00
2017-09-27T05:31:48.333Z,344.00
2017-09-27T05:32:48.326Z,372.00
2017-09-27T05:33:48.325Z,400.00
2017-09-27T05:34:48.321Z,432.00
2017-09-27T05:35:48.317Z,464.00
2017-09-27T05:36:48.312Z,500.00
2017-09-27T05:37:48.307Z,540.00
2017-09-27T05:38:48.302Z,576.00
2017-09-27T05:39:48.298Z,616.00
2017-09-27T05:40:48.291Z,656.00
2017-09-27T05:41:48.284Z,696.00
2017-09-27T05:42:48.281Z,732.00
2017-09-27T05:43:48.275Z,764.00
2017-09-27T05:44:48.271Z,796.00
2017-09-27T05:45:48.266Z,836.00
2017-09-27T05:46:48.264Z,876.00
2017-09-27T05:47:48.258Z,916.00
2017-09-27T05:48:48.252Z,964.00
2017-09-27T05:49:48.252Z,1024.00
2017-09-27T05:50:48.247Z,1088.00
2017-09-27T05:51:48.244Z,1160.00
2017-09-27T05:52:48.238Z,1240.00
2017-09-27T05:53:48.237Z,1328.00
2017-09-27T05:54:48.231Z,1428.00
2017-09-27T05:55:48.228Z,1540.00
2017-09-27T05:56:48.222Z,1632.00
2017-09-27T05:57:48.214Z,1696.00
2017-09-27T05:58:48.209Z,1748.00
2017-09-27T05:59:48.206Z,1792.00
2017-09-27T06:00:48.201Z,1856.00
2017-09-27T06:01:48.196Z,1940.00
2017-09-27T06:02:48.191Z,2040.00
2017-09-27T06:03:48.189Z,2148.00
2017-09-27T06:04:48.184Z,2276.00
2017-09-27T06:05:48.184Z,2400.00
2017-09-27T06:06:48.180Z,2544.00
2017-09-27T06:07:48.177Z,2692.00
2017-09-27T06:08:48.171Z,2776.00
2017-09-27T06:09:48.168Z,2824.00
2017-09-27T06:10:48.166Z,2928.00
2017-09-27T06:11:48.159Z,3052.00
2017-09-27T06:12:48.157Z,3192.00
2017-09-27T06:13:48.149Z,3336.00
2017-09-27T06:14:48.147Z,3488.00
2017-09-27T06:15:48.143Z,3636.00
2017-09-27T06:16:48.138Z,3792.00
2017-09-27T06:17:48.134Z,3976.00
2017-09-27T06:18:48.130Z,3948.00
2017-09-27T06:19:48.127Z,3992.00
2017-09-27T06:20:48.123Z,4048.00
2017-09-27T06:21:48.124Z,4076.00
2017-09-27T06:22:48.121Z,4060.00
2017-09-27T06:23:48.118Z,4020.00
2017-09-27T06:24:48.113Z,3972.00
2017-09-27T06:25:48.116Z,3960.00
2017-09-27T06:26:48.108Z,3980.00
2017-09-27T06:27:48.105Z,4004.00
2017-09-27T06:28:48.100Z,4008.00
2017-09-27T06:29:48.094Z,3984.00
2017-09-27T06:30:48.093Z,3936.00
2017-09-27T06:31:48.087Z,3868.00
2017-09-27T06:32:48.084Z,3804.00
2017-09-27T06:33:48.083Z,3760.00
2017-09-27T06:34:48.081Z,3736.00
2017-09-27T06:35:48.078Z,3736.00
2017-09-27T06:36:48.074Z,3736.00
2017-09-27T06:37:48.069Z,3760.00
2017-09-27T06:38:48.065Z,3784.00
2017-09-27T06:39:48.061Z,3820.00
2017-09-27T06:40:48.057Z,3852.00
2017-09-27T06:41:48.101Z,3860.00
2017-09-27T06:42:48.051Z,3860.00
2017-09-27T06:43:48.049Z,3860.00
2017-09-27T06:44:48.045Z,3868.00
2017-09-27T06:45:48.047Z,3864.00
2017-09-27T06:46:48.044Z,3840.00
2017-09-27T06:47:48.042Z,3816.00
2017-09-27T06:48:48.037Z,3812.00
2017-09-27T06:49:48.034Z,3820.00
2017-09-27T06:50:48.032Z,3844.00
2017-09-27T06:51:48.029Z,3856.00
2017-09-27T06:52:48.025Z,3876.00
2017-09-27T06:53:48.016Z,3896.00
2017-09-27T06:54:48.015Z,3912.00
2017-09-27T06:55:48.011Z,3904.00
2017-09-27T06:56:48.009Z,3884.00
2017-09-27T06:57:48.006Z,3876.00
2017-09-27T06:58:48.002Z,3872.00
2017-09-27T06:59:48.001Z,3880.00
2017-09-27T07:00:47.997Z,3900.00
2017-09-27T07:01:47.998Z,3912.00
2017-09-27T07:02:48.001Z,3932.00
2017-09-27T07:03:47.993Z,3964.00
2017-09-27T07:04:47.990Z,4012.00
2017-09-27T07:05:47.987Z,4052.00
2017-09-27T07:06:47.983Z,4096.00
2017-09-27T07:07:47.981Z,4180.00
2017-09-27T07:08:47.978Z,4304.00
2017-09-27T07:09:47.971Z,4468.00
2017-09-27T07:10:47.967Z,4644.00
2017-09-27T07:11:47.967Z,4864.00
2017-09-27T07:12:47.964Z,5380.00
2017-09-27T07:13:47.960Z,5584.00
2017-09-27T07:14:47.957Z,6044.00
2017-09-27T07:15:47.953Z,6476.00
2017-09-27T07:16:47.951Z,8800.00
2017-09-27T07:17:47.959Z,8404.00
2017-09-27T07:18:47.952Z,9940.00
2017-09-27T07:19:47.948Z,14592.00
2017-09-27T07:20:47.944Z,17600.00
2017-09-27T07:21:47.943Z,18336.00
2017-09-27T07:22:47.941Z,18880.00
2017-09-27T07:23:47.939Z,19104.00
2017-09-27T07:24:47.937Z,19296.00
2017-09-27T07:25:47.933Z,19648.00
2017-09-27T07:26:47.931Z,20032.00
2017-09-27T07:27:47.931Z,20224.00
2017-09-27T07:28:47.929Z,20352.00
2017-09-27T07:29:47.930Z,20320.00
2017-09-27T07:30:47.930Z,20352.00
2017-09-27T07:31:47.931Z,20416.00
2017-09-27T07:32:47.931Z,20448.00
2017-09-27T07:33:47.936Z,20576.00
2017-09-27T07:34:47.937Z,20736.00
2017-09-27T07:35:47.940Z,20864.00
2017-09-27T07:36:47.941Z,20992.00
2017-09-27T07:37:47.940Z,21344.00
2017-09-27T07:38:47.942Z,21536.00
2017-09-27T07:39:47.947Z,21344.00
2017-09-27T07:40:47.948Z,21376.00
2017-09-27T07:41:47.957Z,21632.00
2017-09-27T07:42:47.965Z,21824.00
2017-09-27T07:43:47.963Z,21920.00
2017-09-27T07:44:47.968Z,21984.00
2017-09-27T07:45:47.974Z,22304.00
2017-09-27T07:46:47.978Z,22560.00
2017-09-27T07:47:47.984Z,22720.00
2017-09-27T07:48:48.028Z,22592.00
2017-09-27T07:49:47.987Z,22560.00
2017-09-27T07:50:54.260Z,23584.00
2017-09-27T07:51:48.000Z,23712.00
2017-09-27T07:52:48.005Z,23680.00
2017-09-27T07:53:48.012Z,23648.00
2017-09-27T07:54:48.017Z,23520.00
2017-09-27T07:55:48.023Z,23808.00
2017-09-27T07:56:48.028Z,15156.00
2017-09-27T07:57:48.039Z,14884.00
2017-09-27T07:58:48.047Z,15872.00
2017-09-27T07:59:48.054Z,16160.00
2017-09-27T08:00:48.060Z,16224.00
2017-09-27T08:01:48.078Z,16672.00
2017-09-27T08:02:48.074Z,16832.00
2017-09-27T08:03:48.083Z,17088.00
2017-09-27T08:04:48.088Z,16512.00
2017-09-27T08:05:48.092Z,14488.00
2017-09-27T08:06:48.121Z,14464.00
2017-09-27T08:07:48.107Z,17056.00
2017-09-27T08:08:48.114Z,17728.00
2017-09-27T08:09:48.122Z,18144.00
2017-09-27T08:10:48.130Z,18528.00
2017-09-27T08:11:48.143Z,18816.00
2017-09-27T08:12:48.146Z,19040.00
2017-09-27T08:13:48.157Z,19328.00
2017-09-27T08:14:48.168Z,19488.00
2017-09-27T08:15:48.175Z,19840.00
2017-09-27T08:16:48.184Z,20192.00
2017-09-27T08:17:48.192Z,20320.00
2017-09-27T08:18:48.200Z,20768.00
2017-09-27T08:19:48.207Z,20800.00
2017-09-27T08:20:48.220Z,20064.00
2017-09-27T08:21:48.220Z,19424.00
2017-09-27T08:22:48.229Z,19296.00
2017-09-27T08:23:48.237Z,19296.00
2017-09-27T08:24:48.246Z,19296.00
2017-09-27T08:25:48.254Z,19328.00
2017-09-27T08:26:48.263Z,19392.00
2017-09-27T08:27:48.273Z,19488.00
2017-09-27T08:28:48.282Z,19488.00
2017-09-27T08:29:48.295Z,19552.00
2017-09-27T08:30:48.311Z,19712.00
2017-09-27T08:31:48.314Z,19968.00
2017-09-27T08:32:48.322Z,20608.00
2017-09-27T08:33:48.338Z,21344.00
2017-09-27T08:34:48.341Z,21920.00
2017-09-27T08:35:48.353Z,23360.00
2017-09-27T08:36:48.360Z,24864.00
2017-09-27T08:37:48.367Z,25824.00
2017-09-27T08:38:48.376Z,27392.00
2017-09-27T08:39:48.387Z,28480.00
2017-09-27T08:40:48.397Z,27360.00
2017-09-27T08:41:48.411Z,27008.00
2017-09-27T08:42:48.422Z,25856.00
2017-09-27T08:43:48.433Z,25248.00
2017-09-27T08:44:48.441Z,25600.00
2017-09-27T08:45:48.456Z,25984.00
2017-09-27T08:46:48.459Z,26016.00
2017-09-27T08:47:48.471Z,26112.00
2017-09-27T08:48:48.482Z,26240.00
2017-09-27T08:49:48.491Z,26880.00
2017-09-27T08:50:48.503Z,27296.00
2017-09-27T08:51:48.516Z,27520.00
2017-09-27T08:52:48.526Z,28448.00
2017-09-27T08:53:48.541Z,28960.00
2017-09-27T08:54:48.553Z,29312.00
2017-09-27T08:55:48.566Z,29792.00
2017-09-27T08:56:48.576Z,30240.00
2017-09-27T08:57:48.588Z,30784.00
2017-09-27T08:58:48.599Z,32064.00
2017-09-27T08:59:48.612Z,33152.00
2017-09-27T09:00:48.623Z,33184.00
2017-09-27T09:01:48.632Z,32960.00
2017-09-27T09:02:48.644Z,32480.00
2017-09-27T09:03:48.655Z,31936.00
2017-09-27T09:04:48.665Z,30720.00
2017-09-27T09:05:48.678Z,29888.00
2017-09-27T09:06:48.691Z,30336.00
2017-09-27T09:07:48.703Z,30176.00
2017-09-27T09:08:48.713Z,29504.00
2017-09-27T09:09:48.730Z,29408.00
2017-09-27T09:10:48.744Z,29152.00
2017-09-27T09:11:48.755Z,29280.00
2017-09-27T09:12:48.768Z,28768.00
2017-09-27T09:13:48.794Z,28000.00
2017-09-27T09:14:48.793Z,27264.00
2017-09-27T09:15:48.806Z,26944.00
2017-09-27T09:16:48.818Z,27136.00
2017-09-27T09:17:48.824Z,27520.00
2017-09-27T09:18:48.837Z,27616.00
2017-09-27T09:19:48.849Z,27328.00
2017-09-27T09:20:48.867Z,27584.00
2017-09-27T09:21:48.875Z,28512.00
2017-09-27T09:22:48.888Z,28576.00
2017-09-27T09:23:48.909Z,28800.00
2017-09-27T09:24:48.912Z,28864.00
2017-09-27T09:25:48.933Z,29216.00
2017-09-27T09:26:48.989Z,29312.00
2017-09-27T09:27:49.130Z,29696.00
2017-09-27T09:28:48.967Z,29152.00
2017-09-27T09:29:48.981Z,27328.00
2017-09-27T09:30:48.993Z,25152.00
2017-09-27T09:31:49.007Z,22720.00
2017-09-27T09:32:49.020Z,22336.00
2017-09-27T09:33:49.028Z,22176.00
2017-09-27T09:34:49.041Z,21952.00
2017-09-27T09:35:49.054Z,21824.00
2017-09-27T09:36:49.067Z,22016.00
2017-09-27T09:37:49.081Z,22080.00
2017-09-27T09:38:49.094Z,22336.00
2017-09-27T09:39:49.111Z,22400.00
2017-09-27T09:40:49.120Z,22560.00
2017-09-27T09:41:49.138Z,22656.00
2017-09-27T09:42:49.150Z,22272.00
2017-09-27T09:43:49.165Z,22656.00
2017-09-27T09:44:49.177Z,22752.00
2017-09-27T09:45:49.186Z,22720.00
2017-09-27T09:46:49.200Z,22944.00
2017-09-27T09:47:49.213Z,23104.00
2017-09-27T09:48:49.227Z,23200.00
2017-09-27T09:49:49.245Z,23392.00
2017-09-27T09:50:49.259Z,23680.00
2017-09-27T09:51:49.273Z,23808.00
2017-09-27T09:52:49.284Z,23648.00
2017-09-27T09:53:49.298Z,23392.00
2017-09-27T09:54:49.313Z,23616.00
2017-09-27T09:55:49.326Z,23648.00
2017-09-27T09:56:49.340Z,23680.00
2017-09-27T09:57:49.349Z,23744.00
2017-09-27T09:58:49.363Z,23936.00
2017-09-27T09:59:49.376Z,23840.00
2017-09-27T10:00:49.387Z,23680.00
2017-09-27T10:01:49.403Z,23392.00
2017-09-27T10:02:49.415Z,23488.00
2017-09-27T10:03:49.439Z,23584.00
2017-09-27T10:04:49.443Z,23808.00
2017-09-27T10:05:49.460Z,23776.00
2017-09-27T10:06:49.475Z,23648.00
2017-09-27T10:07:49.488Z,23520.00
2017-09-27T10:08:49.502Z,23648.00
2017-09-27T10:09:49.515Z,23872.00
2017-09-27T10:10:49.529Z,23904.00
2017-09-27T10:11:49.545Z,24384.00
2017-09-27T10:12:49.557Z,24992.00
2017-09-27T10:13:49.567Z,27072.00
2017-09-27T10:14:49.582Z,28992.00
2017-09-27T10:15:49.600Z,28384.00
2017-09-27T10:16:49.609Z,28000.00
2017-09-27T10:17:49.622Z,27968.00
2017-09-27T10:18:49.637Z,28960.00
2017-09-27T10:19:49.652Z,31392.00
2017-09-27T10:20:49.666Z,31104.00
2017-09-27T10:21:49.682Z,26912.00
2017-09-27T10:22:49.697Z,25696.00
2017-09-27T10:23:49.714Z,25248.00
2017-09-27T10:24:49.726Z,25056.00
2017-09-27T10:25:49.745Z,24992.00
2017-09-27T10:26:49.755Z,24512.00
2017-09-27T10:27:49.770Z,24448.00
2017-09-27T10:28:49.783Z,23840.00
2017-09-27T10:29:49.795Z,23680.00
2017-09-27T10:30:49.810Z,23744.00
2017-09-27T10:31:49.823Z,23488.00
2017-09-27T10:32:49.837Z,23232.00
2017-09-27T10:33:49.852Z,22976.00
2017-09-27T10:34:49.865Z,22784.00
2017-09-27T10:35:49.879Z,22464.00
2017-09-27T10:36:49.892Z,22368.00
2017-09-27T10:37:49.911Z,22208.00
2017-09-27T10:38:49.926Z,22720.00
2017-09-27T10:39:49.941Z,22656.00
2017-09-27T10:40:49.954Z,22208.00
2017-09-27T10:41:49.967Z,21248.00
2017-09-27T10:42:49.981Z,22208.00
2017-09-27T10:43:49.995Z,22592.00
2017-09-27T10:44:50.010Z,22016.00
2017-09-27T10:45:50.019Z,22336.00
2017-09-27T10:46:50.034Z,22112.00
2017-09-27T10:47:50.047Z,21568.00
2017-09-27T10:48:50.060Z,21824.00
2017-09-27T10:49:50.080Z,21664.00
2017-09-27T10:50:50.094Z,21120.00
2017-09-27T10:51:50.106Z,23424.00
2017-09-27T10:52:50.120Z,23328.00
2017-09-27T10:53:50.131Z,23168.00
2017-09-27T10:54:50.145Z,22848.00
2017-09-27T10:55:50.159Z,22336.00
2017-09-27T10:56:50.171Z,22560.00
2017-09-27T10:57:50.186Z,22080.00
2017-09-27T10:58:50.201Z,21696.00
2017-09-27T10:59:50.218Z,22208.00
2017-09-27T11:00:50.281Z,22496.00
2017-09-27T11:01:50.373Z,22240.00
2017-09-27T11:02:50.267Z,22304.00
2017-09-27T11:03:50.274Z,21824.00
2017-09-27T11:04:50.285Z,22272.00
2017-09-27T11:05:50.334Z,22912.00
2017-09-27T11:06:50.313Z,23776.00
2017-09-27T11:07:50.324Z,23968.00
2017-09-27T11:08:50.336Z,23488.00
2017-09-27T11:09:50.347Z,23104.00
2017-09-27T11:10:50.371Z,23040.00
2017-09-27T11:11:50.372Z,23744.00
2017-09-27T11:12:50.382Z,25184.00
2017-09-27T11:13:50.397Z,25280.00
2017-09-27T11:14:50.411Z,24960.00
2017-09-27T11:15:50.421Z,23744.00
2017-09-27T11:16:50.432Z,16768.00
2017-09-27T11:17:50.449Z,10524.00
2017-09-27T11:18:50.552Z,9680.00
2017-09-27T11:19:50.640Z,9464.00
2017-09-27T11:20:50.574Z,9348.00
2017-09-27T11:21:50.687Z,9316.00
2017-09-27T11:22:50.610Z,9232.00
2017-09-27T11:23:50.564Z,9116.00
2017-09-27T11:24:50.572Z,9072.00
2017-09-27T11:25:50.530Z,9088.00
2017-09-27T11:26:50.539Z,9064.00
2017-09-27T11:27:50.550Z,8916.00
2017-09-27T11:28:50.560Z,9020.00
2017-09-27T11:29:50.565Z,8996.00
2017-09-27T11:30:50.575Z,8960.00
2017-09-27T11:31:50.583Z,9056.00
2017-09-27T11:32:50.591Z,9076.00
2017-09-27T11:33:50.604Z,8748.00
2017-09-27T11:34:50.610Z,8560.00
2017-09-27T11:35:50.621Z,7948.00
2017-09-27T11:36:50.626Z,8284.00
2017-09-27T11:37:50.634Z,8396.00
2017-09-27T11:38:50.639Z,8512.00
2017-09-27T11:39:50.649Z,8524.00
2017-09-27T11:40:50.822Z,8516.00
2017-09-27T11:41:50.660Z,8432.00
2017-09-27T11:42:50.710Z,8456.00
2017-09-27T11:43:50.677Z,8416.00
2017-09-27T11:44:50.678Z,8360.00
2017-09-27T11:45:50.684Z,8324.00
2017-09-27T11:46:50.690Z,8192.00
2017-09-27T11:47:50.697Z,6628.00
2017-09-27T11:48:50.703Z,7860.00
2017-09-27T11:49:50.714Z,6252.00
2017-09-27T11:50:50.720Z,5904.00
2017-09-27T11:51:50.726Z,5792.00
2017-09-27T11:52:50.732Z,6000.00
2017-09-27T11:53:50.733Z,6320.00
2017-09-27T11:54:50.739Z,7528.00
2017-09-27T11:55:50.744Z,7920.00
2017-09-27T11:56:50.749Z,7144.00
2017-09-27T11:57:50.760Z,7664.00
2017-09-27T11:58:50.764Z,7940.00
2017-09-27T11:59:50.770Z,8572.00
2017-09-27T12:00:50.776Z,8436.00
2017-09-27T12:01:50.781Z,8636.00
2017-09-27T12:02:50.788Z,8364.00
2017-09-27T12:03:50.792Z,9124.00
2017-09-27T12:04:50.797Z,9920.00
2017-09-27T12:05:50.797Z,10136.00
2017-09-27T12:06:50.804Z,10044.00
2017-09-27T12:07:50.809Z,10560.00
2017-09-27T12:08:50.816Z,9480.00
2017-09-27T12:09:50.817Z,8272.00
2017-09-27T12:10:50.823Z,8068.00
2017-09-27T12:11:50.827Z,7916.00
2017-09-27T12:12:50.831Z,7852.00
2017-09-27T12:13:50.842Z,7332.00
2017-09-27T12:14:50.857Z,6708.00
2017-09-27T12:15:50.852Z,7368.00
2017-09-27T12:16:50.854Z,8268.00
2017-09-27T12:17:50.859Z,7448.00
2017-09-27T12:18:50.865Z,7064.00
2017-09-27T12:19:50.870Z,8120.00
2017-09-27T12:20:50.874Z,8512.00
2017-09-27T12:21:50.873Z,8848.00
2017-09-27T12:22:50.898Z,9176.00
2017-09-27T12:23:50.884Z,9416.00
2017-09-27T12:24:50.886Z,9572.00
2017-09-27T12:25:50.891Z,9952.00
2017-09-27T12:26:50.896Z,9880.00
2017-09-27T12:27:50.899Z,9884.00